Time,TemperatureF,DewpointF,PressureIn,WindDirection,WindDirectionDegrees,WindSpeedMPH,WindSpeedGustMPH,Humidity,HourlyPrecipIn,Conditions,Clouds,dailyrainin,SolarRadiationWatts/m^2,SoftwareType,DateUTC
2013-01-10 00:00:00,44.2,29.1,30.17,West,261,8.0,12.0,55,0.00,,,0.00,0.0,meteohub,2013-01-10 05:00:00,
2013-01-10 00:02:00,44.4,28.4,30.18,SSE,155,5.0,13.0,53,0.00,,,0.00,0.0,meteohub,2013-01-10 05:02:00,
2013-01-10 00:03:00,44.6,28.9,30.17,NNE,12,5.0,13.0,54,0.00,,,0.00,0.0,meteohub,2013-01-10 05:03:00,
2013-01-10 00:06:00,44.4,28.8,30.18,West,261,4.0,14.0,54,0.00,,,0.00,0.0,meteohub,2013-01-10 05:06:00,
2013-01-10 00:11:00,44.4,29.3,30.19,SSW,210,2.0,26.0,55,0.00,,,0.00,0.0,meteohub,2013-01-10 05:11:00,
2013-01-10 00:16:00,44.2,29.1,30.18,West,269,2.0,26.0,55,0.00,,,0.00,0.0,meteohub,2013-01-10 05:16:00,
2013-01-10 00:21:00,44.2,29.5,30.18,NNE,30,0.0,13.0,56,0.00,,,0.00,0.0,meteohub,2013-01-10 05:21:00,
2013-01-10 00:26:00,43.9,29.1,30.19,NE,37,3.0,13.0,56,0.00,,,0.00,0.0,meteohub,2013-01-10 05:26:00,
2013-01-10 00:32:00,43.7,29.8,30.20,WNW,282,3.0,17.0,58,0.00,,,0.00,0.0,meteohub,2013-01-10 05:32:00,
2013-01-10 00:37:00,43.5,29.7,30.19,West,275,3.0,17.0,58,0.00,,,0.00,0.0,meteohub,2013-01-10 05:37:00,
2013-01-10 00:42:00,43.2,28.9,30.22,WNW,300,4.0,21.0,57,0.00,,,0.00,0.0,meteohub,2013-01-10 05:42:00,
2013-01-10 00:47:00,43.3,27.9,30.21,WSW,249,7.0,23.0,54,0.00,,,0.00,0.0,meteohub,2013-01-10 05:47:00,
2013-01-10 00:52:00,43.0,26.1,30.22,North,5,2.0,23.0,51,0.00,,,0.00,0.0,meteohub,2013-01-10 05:52:00,
2013-01-10 00:57:00,42.6,25.7,30.22,NW,307,3.0,23.0,51,0.00,,,0.00,0.0,meteohub,2013-01-10 05:57:00,
2013-01-10 01:02:00,42.3,25.3,30.22,NE,56,4.0,10.0,51,0.00,,,0.00,0.0,meteohub,2013-01-10 06:02:00,
2013-01-10 01:07:00,42.3,25.0,30.23,East,95,0.0,7.0,50,0.00,,,0.00,0.0,meteohub,2013-01-10 06:07:00,
2013-01-10 01:12:00,42.3,25.0,30.24,WSW,257,1.0,6.0,50,0.00,,,0.00,0.0,meteohub,2013-01-10 06:12:00,
2013-01-10 01:17:00,42.1,25.3,30.23,SW,225,3.0,7.0,51,0.00,,,0.00,0.0,meteohub,2013-01-10 06:17:00,
2013-01-10 01:22:00,42.1,24.8,30.23,WSW,250,4.0,7.0,50,0.00,,,0.00,0.0,meteohub,2013-01-10 06:22:00,
2013-01-10 01:27:00,42.1,25.7,30.23,West,274,1.0,16.0,52,0.00,,,0.00,0.0,meteohub,2013-01-10 06:27:00,
2013-01-10 01:32:00,41.9,26.1,30.24,NNW,346,2.0,16.0,53,0.00,,,0.00,0.0,meteohub,2013-01-10 06:32:00,
2013-01-10 01:37:00,41.7,25.9,30.25,WSW,242,1.0,16.0,53,0.00,,,0.00,0.0,meteohub,2013-01-10 06:37:00,
2013-01-10 01:42:00,41.5,27.0,30.24,NE,41,2.0,12.0,56,0.00,,,0.00,0.0,meteohub,2013-01-10 06:42:00,
2013-01-10 01:47:00,41.4,25.9,30.24,North,5,1.0,12.0,54,0.00,,,0.00,0.0,meteohub,2013-01-10 06:47:00,
2013-01-10 01:52:00,41.7,26.8,30.25,WSW,246,3.0,14.0,55,0.00,,,0.00,0.0,meteohub,2013-01-10 06:52:00,
2013-01-10 01:57:00,42.1,26.6,30.25,South,178,0.0,17.0,54,0.00,,,0.00,0.0,meteohub,2013-01-10 06:57:00,
2013-01-10 02:02:00,41.5,27.0,30.24,NNW,332,4.0,17.0,56,0.00,,,0.00,0.0,meteohub,2013-01-10 07:02:00,
2013-01-10 02:07:00,41.4,26.8,30.25,North,5,4.0,12.0,56,0.00,,,0.00,0.0,meteohub,2013-01-10 07:07:00,
2013-01-10 02:12:00,41.5,27.0,30.24,NE,42,0.0,10.0,56,0.00,,,0.00,0.0,meteohub,2013-01-10 07:12:00,
2013-01-10 02:17:00,41.4,28.0,30.25,NE,51,5.0,10.0,59,0.00,,,0.00,0.0,meteohub,2013-01-10 07:17:00,
2013-01-10 02:22:00,41.4,27.3,30.24,WNW,292,4.0,10.0,57,0.00,,,0.00,0.0,meteohub,2013-01-10 07:22:00,
2013-01-10 02:27:00,41.7,28.0,30.25,NW,310,1.0,14.0,58,0.00,,,0.00,0.0,meteohub,2013-01-10 07:27:00,
2013-01-10 02:32:00,41.5,27.9,30.25,North,9,5.0,15.0,58,0.00,,,0.00,0.0,meteohub,2013-01-10 07:32:00,
2013-01-10 02:37:00,41.7,27.7,30.26,WSW,254,0.0,15.0,57,0.00,,,0.00,0.0,meteohub,2013-01-10 07:37:00,
2013-01-10 02:42:00,41.7,28.0,30.25,SSE,159,2.0,15.0,58,0.00,,,0.00,0.0,meteohub,2013-01-10 07:42:00,
2013-01-10 02:47:00,41.5,27.9,30.26,West,276,2.0,9.0,58,0.00,,,0.00,0.0,meteohub,2013-01-10 07:47:00,
2013-01-10 02:52:00,41.5,27.9,30.27,WSW,248,0.0,8.0,58,0.00,,,0.00,0.0,meteohub,2013-01-10 07:52:00,
2013-01-10 02:57:00,41.5,28.8,30.26,NNE,24,0.0,8.0,60,0.00,,,0.00,0.0,meteohub,2013-01-10 07:57:00,
2013-01-10 03:02:00,41.4,28.0,30.26,South,184,2.0,4.0,59,0.00,,,0.00,0.0,meteohub,2013-01-10 08:02:00,
2013-01-10 03:07:00,41.0,28.6,30.26,WSW,252,1.0,6.0,61,0.00,,,0.00,0.0,meteohub,2013-01-10 08:07:00,
2013-01-10 03:12:00,40.6,28.2,30.25,West,278,3.0,9.0,61,0.00,,,0.00,0.0,meteohub,2013-01-10 08:12:00,
2013-01-10 03:17:00,40.6,28.2,30.26,SSW,194,3.0,9.0,61,0.00,,,0.00,0.0,meteohub,2013-01-10 08:17:00,
2013-01-10 03:22:00,40.8,28.0,30.25,WNW,293,2.0,12.0,60,0.00,,,0.00,0.0,meteohub,2013-01-10 08:22:00,
2013-01-10 03:27:00,41.2,27.9,30.24,NW,325,3.0,12.0,59,0.00,,,0.00,0.0,meteohub,2013-01-10 08:27:00,
2013-01-10 03:32:00,41.0,27.9,30.25,West,267,1.0,12.0,59,0.00,,,0.00,0.0,meteohub,2013-01-10 08:32:00,
2013-01-10 03:37:00,41.0,27.9,30.25,West,272,2.0,18.0,59,0.00,,,0.00,0.0,meteohub,2013-01-10 08:37:00,
2013-01-10 03:42:00,41.0,27.9,30.25,SW,226,2.0,18.0,59,0.00,,,0.00,0.0,meteohub,2013-01-10 08:42:00,
2013-01-10 03:47:00,40.8,27.1,30.25,WSW,250,3.0,15.0,58,0.00,,,0.00,0.0,meteohub,2013-01-10 08:47:00,
2013-01-10 03:52:00,40.6,27.9,30.24,NE,52,5.0,17.0,60,0.00,,,0.00,0.0,meteohub,2013-01-10 08:52:00,
2013-01-10 03:57:00,40.5,26.1,30.24,West,263,7.0,26.0,56,0.00,,,0.00,0.0,meteohub,2013-01-10 08:57:00,
2013-01-10 04:02:00,40.5,26.8,30.24,WNW,295,0.0,26.0,58,0.00,,,0.00,0.0,meteohub,2013-01-10 09:02:00,
2013-01-10 04:07:00,40.5,25.2,30.24,North,355,2.0,26.0,54,0.00,,,0.00,0.0,meteohub,2013-01-10 09:07:00,
2013-01-10 04:12:00,40.1,26.1,30.24,WSW,247,3.0,19.0,57,0.00,,,0.00,0.0,meteohub,2013-01-10 09:12:00,
2013-01-10 04:17:00,39.7,26.6,30.23,WNW,296,1.0,19.0,59,0.00,,,0.00,0.0,meteohub,2013-01-10 09:17:00,
2013-01-10 04:22:00,39.7,25.7,30.25,West,259,8.0,16.0,57,0.00,,,0.00,0.0,meteohub,2013-01-10 09:22:00,
2013-01-10 04:27:00,39.9,26.4,30.23,WNW,302,2.0,17.0,58,0.00,,,0.00,0.0,meteohub,2013-01-10 09:27:00,
2013-01-10 04:32:00,39.7,25.3,30.24,South,181,5.0,17.0,56,0.00,,,0.00,0.0,meteohub,2013-01-10 09:32:00,
2013-01-10 04:37:00,39.6,25.2,30.24,NE,44,18.0,18.0,56,0.00,,,0.00,0.0,meteohub,2013-01-10 09:37:00,
2013-01-10 04:42:00,39.6,25.2,30.24,ENE,67,2.0,18.0,56,0.00,,,0.00,0.0,meteohub,2013-01-10 09:42:00,
2013-01-10 04:47:00,39.4,25.0,30.24,WNW,291,5.0,18.0,56,0.00,,,0.00,0.0,meteohub,2013-01-10 09:47:00,
2013-01-10 04:52:00,39.4,25.0,30.25,SW,221,4.0,18.0,56,0.00,,,0.00,0.0,meteohub,2013-01-10 09:52:00,
2013-01-10 04:57:00,39.2,24.8,30.25,East,86,1.0,16.0,56,0.00,,,0.00,0.0,meteohub,2013-01-10 09:57:00,
2013-01-10 05:02:00,39.2,24.8,30.26,WSW,247,1.0,16.0,56,0.00,,,0.00,0.0,meteohub,2013-01-10 10:02:00,
2013-01-10 05:07:00,39.0,24.6,30.27,West,267,3.0,18.0,56,0.00,,,0.00,0.0,meteohub,2013-01-10 10:07:00,
2013-01-10 05:12:00,39.0,24.3,30.28,ESE,121,8.0,18.0,55,0.00,,,0.00,0.0,meteohub,2013-01-10 10:12:00,
2013-01-10 05:17:00,39.2,24.4,30.30,North,11,4.0,12.0,55,0.00,,,0.00,0.0,meteohub,2013-01-10 10:17:00,
2013-01-10 05:22:00,39.2,23.9,30.29,SSE,163,2.0,12.0,54,0.00,,,0.00,0.0,meteohub,2013-01-10 10:22:00,
2013-01-10 05:27:00,39.4,24.1,30.30,West,267,1.0,14.0,54,0.00,,,0.00,0.0,meteohub,2013-01-10 10:27:00,
2013-01-10 05:32:00,39.4,24.6,30.30,ENE,66,2.0,17.0,55,0.00,,,0.00,0.0,meteohub,2013-01-10 10:32:00,
2013-01-10 05:37:00,39.2,24.4,30.32,ENE,74,2.0,17.0,55,0.00,,,0.00,0.0,meteohub,2013-01-10 10:37:00,
2013-01-10 05:42:00,39.0,23.7,30.33,ENE,59,3.0,12.0,54,0.00,,,0.00,0.0,meteohub,2013-01-10 10:42:00,
2013-01-10 05:47:00,39.0,24.6,30.34,ESE,107,0.0,7.0,56,0.00,,,0.00,0.0,meteohub,2013-01-10 10:47:00,
2013-01-10 05:52:00,38.5,25.0,30.35,East,97,1.0,5.0,58,0.00,,,0.00,0.0,meteohub,2013-01-10 10:52:00,
2013-01-10 05:57:00,38.1,24.6,30.36,WNW,286,3.0,5.0,58,0.00,,,0.00,0.0,meteohub,2013-01-10 10:57:00,
2013-01-10 06:02:00,37.9,25.0,30.37,WSW,257,0.0,5.0,59,0.00,,,0.00,0.0,meteohub,2013-01-10 11:02:00,
2013-01-10 06:07:00,37.6,25.0,30.38,SE,140,1.0,4.0,60,0.00,,,0.00,0.0,meteohub,2013-01-10 11:07:00,
2013-01-10 06:12:00,37.2,23.7,30.38,SSE,150,0.0,3.0,58,0.00,,,0.00,0.0,meteohub,2013-01-10 11:12:00,
2013-01-10 06:17:00,37.2,23.7,30.39,SW,229,0.0,3.0,58,0.00,,,0.00,0.0,meteohub,2013-01-10 11:17:00,
2013-01-10 06:22:00,37.0,24.8,30.39,SW,229,0.0,2.0,61,0.00,,,0.00,0.0,meteohub,2013-01-10 11:22:00,
2013-01-10 06:28:00,36.9,23.9,30.40,SW,229,0.0,2.0,59,0.00,,,0.00,0.0,meteohub,2013-01-10 11:28:00,
2013-01-10 06:33:00,36.5,24.8,30.40,ESE,115,0.0,2.0,62,0.00,,,0.00,0.0,meteohub,2013-01-10 11:33:00,
2013-01-10 06:38:00,36.3,25.3,30.41,ESE,115,0.0,2.0,64,0.00,,,0.00,0.0,meteohub,2013-01-10 11:38:00,
2013-01-10 06:43:00,36.1,24.1,30.41,NE,40,0.0,2.0,61,0.00,,,0.00,0.0,meteohub,2013-01-10 11:43:00,
2013-01-10 06:48:00,36.1,24.4,30.42,SW,215,2.0,2.0,62,0.00,,,0.00,0.0,meteohub,2013-01-10 11:48:00,
2013-01-10 06:53:00,36.1,25.5,30.43,SW,216,0.0,2.0,65,0.00,,,0.00,0.0,meteohub,2013-01-10 11:53:00,
2013-01-10 06:58:00,36.0,25.7,30.43,SW,216,0.0,2.0,66,0.00,,,0.00,0.0,meteohub,2013-01-10 11:58:00,
2013-01-10 07:03:00,35.4,25.5,30.43,SW,216,0.0,2.0,67,0.00,,,0.00,0.0,meteohub,2013-01-10 12:03:00,
2013-01-10 07:08:00,35.1,25.5,30.43,SW,216,0.0,1.0,68,0.00,,,0.00,0.0,meteohub,2013-01-10 12:08:00,
2013-01-10 07:13:00,34.5,25.3,30.43,SW,217,0.0,1.0,69,0.00,,,0.00,0.0,meteohub,2013-01-10 12:13:00,
2013-01-10 07:18:00,34.0,25.9,30.43,SW,217,0.0,2.0,72,0.00,,,0.00,0.0,meteohub,2013-01-10 12:18:00,
2013-01-10 07:24:00,33.4,25.7,30.44,SW,217,0.0,2.0,73,0.00,,,0.00,0.0,meteohub,2013-01-10 12:24:00,
2013-01-10 07:29:00,33.3,25.5,30.44,SW,217,0.0,2.0,73,0.00,,,0.00,5.0,meteohub,2013-01-10 12:29:00,
2013-01-10 07:34:00,32.9,25.2,30.45,SW,217,0.0,1.0,73,0.00,,,0.00,7.0,meteohub,2013-01-10 12:34:00,
2013-01-10 07:39:00,32.5,24.8,30.45,SW,217,0.0,0.0,73,0.00,,,0.00,9.0,meteohub,2013-01-10 12:39:00,
2013-01-10 07:44:00,32.4,24.3,30.45,SW,217,0.0,0.0,72,0.00,,,0.00,11.0,meteohub,2013-01-10 12:44:00,
2013-01-10 07:49:00,32.2,25.2,30.45,SW,217,3.0,0.0,75,0.00,,,0.00,12.0,meteohub,2013-01-10 12:49:00,
2013-01-10 07:54:00,31.8,24.8,30.46,SW,217,0.0,2.0,75,0.00,,,0.00,16.0,meteohub,2013-01-10 12:54:00,
2013-01-10 07:59:00,31.8,24.4,30.46,SW,229,0.0,3.0,74,0.00,,,0.00,18.0,meteohub,2013-01-10 12:59:00,
2013-01-10 08:04:00,32.0,24.3,30.46,SW,229,0.0,3.0,73,0.00,,,0.00,19.0,meteohub,2013-01-10 13:04:00,
2013-01-10 08:09:00,32.2,25.2,30.47,SW,229,0.0,4.0,75,0.00,,,0.00,21.0,meteohub,2013-01-10 13:09:00,
2013-01-10 08:14:00,32.2,24.8,30.47,SW,228,0.0,4.0,74,0.00,,,0.00,23.0,meteohub,2013-01-10 13:14:00,
2013-01-10 08:20:00,32.4,24.6,30.47,SE,134,0.0,1.0,73,0.00,,,0.00,23.0,meteohub,2013-01-10 13:20:00,
2013-01-10 08:25:00,32.7,25.3,30.48,SE,134,0.0,2.0,74,0.00,,,0.00,25.0,meteohub,2013-01-10 13:25:00,
2013-01-10 08:30:00,33.4,25.3,30.47,NE,42,0.0,2.0,72,0.00,,,0.00,26.0,meteohub,2013-01-10 13:30:00,
2013-01-10 08:35:00,34.0,25.5,30.48,NE,42,0.0,5.0,71,0.00,,,0.00,28.0,meteohub,2013-01-10 13:35:00,
2013-01-10 08:40:00,34.3,25.5,30.48,WSW,238,0.0,5.0,70,0.00,,,0.00,30.0,meteohub,2013-01-10 13:40:00,
2013-01-10 08:45:00,35.1,24.8,30.48,SSE,166,0.0,3.0,66,0.00,,,0.00,30.0,meteohub,2013-01-10 13:45:00,
2013-01-10 08:50:00,36.0,25.3,30.48,SSW,203,0.0,3.0,65,0.00,,,0.00,30.0,meteohub,2013-01-10 13:50:00,
2013-01-10 08:55:00,36.7,25.7,30.48,WNW,294,1.0,4.0,64,0.00,,,0.00,32.0,meteohub,2013-01-10 13:55:00,
2013-01-10 09:00:00,37.0,25.7,30.48,WSW,248,2.0,5.0,63,0.00,,,0.00,32.0,meteohub,2013-01-10 14:00:00,
2013-01-10 09:05:00,37.8,25.9,30.48,SSW,208,1.0,7.0,62,0.00,,,0.00,32.0,meteohub,2013-01-10 14:05:00,
2013-01-10 09:10:00,38.1,25.0,30.49,SSW,200,0.0,7.0,59,0.00,,,0.00,33.0,meteohub,2013-01-10 14:10:00,
2013-01-10 09:15:00,38.5,25.9,30.50,South,179,0.0,7.0,60,0.00,,,0.00,33.0,meteohub,2013-01-10 14:15:00,
2013-01-10 09:21:00,38.7,25.5,30.50,South,175,0.0,4.0,59,0.00,,,0.00,35.0,meteohub,2013-01-10 14:21:00,
2013-01-10 09:26:00,39.0,25.9,30.50,SW,234,0.0,4.0,59,0.00,,,0.00,35.0,meteohub,2013-01-10 14:26:00,
2013-01-10 09:31:00,39.4,26.2,30.51,WSW,254,1.0,2.0,59,0.00,,,0.00,35.0,meteohub,2013-01-10 14:31:00,
2013-01-10 09:36:00,39.6,25.2,30.51,WSW,244,0.0,5.0,56,0.00,,,0.00,35.0,meteohub,2013-01-10 14:36:00,
2013-01-10 09:41:00,39.7,25.3,30.51,SSW,201,1.0,5.0,56,0.00,,,0.00,37.0,meteohub,2013-01-10 14:41:00,
2013-01-10 09:46:00,39.9,25.9,30.51,SSW,201,0.0,5.0,57,0.00,,,0.00,39.0,meteohub,2013-01-10 14:46:00,
2013-01-10 09:51:00,40.3,25.9,30.51,ESE,120,2.0,4.0,56,0.00,,,0.00,37.0,meteohub,2013-01-10 14:51:00,
2013-01-10 09:56:00,40.3,25.3,30.51,SSW,194,0.0,5.0,55,0.00,,,0.00,37.0,meteohub,2013-01-10 14:56:00,
2013-01-10 10:02:00,40.5,26.4,30.51,ENE,72,2.0,5.0,57,0.00,,,0.00,39.0,meteohub,2013-01-10 15:02:00,
2013-01-10 10:07:00,40.6,25.3,30.51,ENE,75,0.0,5.0,54,0.00,,,0.00,37.0,meteohub,2013-01-10 15:07:00,
2013-01-10 10:12:00,40.8,25.5,30.52,ESE,113,2.0,4.0,54,0.00,,,0.00,40.0,meteohub,2013-01-10 15:12:00,
2013-01-10 10:17:00,40.8,25.9,30.52,South,184,1.0,3.0,55,0.00,,,0.00,44.0,meteohub,2013-01-10 15:17:00,
2013-01-10 10:22:00,41.2,25.9,30.52,ESE,114,0.0,5.0,54,0.00,,,0.00,44.0,meteohub,2013-01-10 15:22:00,
2013-01-10 10:27:00,41.2,26.2,30.52,WSW,249,0.0,5.0,55,0.00,,,0.00,40.0,meteohub,2013-01-10 15:27:00,
2013-01-10 10:32:00,41.2,24.4,30.52,ENE,65,1.0,5.0,51,0.00,,,0.00,44.0,meteohub,2013-01-10 15:32:00,
2013-01-10 10:37:00,41.4,25.5,30.52,NNE,32,0.0,5.0,53,0.00,,,0.00,40.0,meteohub,2013-01-10 15:37:00,
2013-01-10 10:42:00,41.5,25.7,30.51,NNE,28,0.0,5.0,53,0.00,,,0.00,40.0,meteohub,2013-01-10 15:42:00,
2013-01-10 10:47:00,41.7,25.3,30.51,NNW,337,2.0,5.0,52,0.00,,,0.00,40.0,meteohub,2013-01-10 15:47:00,
2013-01-10 10:52:00,42.1,24.8,30.52,East,92,1.0,3.0,50,0.00,,,0.00,40.0,meteohub,2013-01-10 15:52:00,
2013-01-10 10:57:00,42.1,26.2,30.52,NNE,26,0.0,3.0,53,0.00,,,0.00,40.0,meteohub,2013-01-10 15:57:00,
2013-01-10 11:02:00,42.1,25.3,30.52,WSW,238,1.0,4.0,51,0.00,,,0.00,40.0,meteohub,2013-01-10 16:02:00,
2013-01-10 11:07:00,41.9,25.2,30.51,East,96,0.0,4.0,51,0.00,,,0.00,69.0,meteohub,2013-01-10 16:07:00,
2013-01-10 11:12:00,42.1,24.8,30.51,North,355,0.0,4.0,50,0.00,,,0.00,134.0,meteohub,2013-01-10 16:12:00,
2013-01-10 11:17:00,42.1,24.8,30.50,NE,46,3.0,4.0,50,0.00,,,0.00,246.0,meteohub,2013-01-10 16:17:00,
2013-01-10 11:22:00,42.1,24.8,30.50,SW,228,2.0,9.0,50,0.00,,,0.00,383.0,meteohub,2013-01-10 16:22:00,
2013-01-10 11:28:00,42.1,25.3,30.50,NNW,336,0.0,12.0,51,0.00,,,0.00,401.0,meteohub,2013-01-10 16:28:00,
2013-01-10 11:33:00,42.4,24.6,30.50,North,350,1.0,12.0,49,0.00,,,0.00,397.0,meteohub,2013-01-10 16:33:00,
2013-01-10 11:38:00,42.4,26.1,30.50,West,269,0.0,12.0,52,0.00,,,0.00,348.0,meteohub,2013-01-10 16:38:00,
2013-01-10 11:43:00,42.6,25.7,30.50,NE,50,2.0,7.0,51,0.00,,,0.00,387.0,meteohub,2013-01-10 16:43:00,
2013-01-10 11:48:00,42.6,24.8,30.50,SSW,213,6.0,7.0,49,0.00,,,0.00,315.0,meteohub,2013-01-10 16:48:00,
2013-01-10 11:53:00,42.6,25.3,30.49,WSW,250,7.0,11.0,50,0.00,,,0.00,158.0,meteohub,2013-01-10 16:53:00,
2013-01-10 11:58:00,42.8,25.5,30.49,WSW,243,0.0,11.0,50,0.00,,,0.00,211.0,meteohub,2013-01-10 16:58:00,
2013-01-10 12:03:00,42.8,25.5,30.49,North,5,1.0,11.0,50,0.00,,,0.00,172.0,meteohub,2013-01-10 17:03:00,
2013-01-10 12:08:00,43.0,25.2,30.49,SW,228,0.0,10.0,49,0.00,,,0.00,76.0,meteohub,2013-01-10 17:08:00,
2013-01-10 12:13:00,43.2,25.3,30.50,NNE,30,2.0,8.0,49,0.00,,,0.00,313.0,meteohub,2013-01-10 17:13:00,
2013-01-10 12:18:00,43.3,25.0,30.49,South,190,0.0,6.0,48,0.00,,,0.00,162.0,meteohub,2013-01-10 17:18:00,
2013-01-10 12:23:00,43.3,25.5,30.49,NE,42,0.0,6.0,49,0.00,,,0.00,216.0,meteohub,2013-01-10 17:23:00,
2013-01-10 12:28:00,43.2,24.8,30.48,WNW,292,5.0,6.0,48,0.00,,,0.00,197.0,meteohub,2013-01-10 17:28:00,
2013-01-10 12:33:00,43.3,25.0,30.49,SSE,148,0.0,7.0,48,0.00,,,0.00,207.0,meteohub,2013-01-10 17:33:00,
2013-01-10 12:39:00,43.5,25.2,30.49,South,185,1.0,8.0,48,0.00,,,0.00,348.0,meteohub,2013-01-10 17:39:00,
2013-01-10 12:44:00,43.5,24.6,30.48,SW,226,1.0,8.0,47,0.00,,,0.00,316.0,meteohub,2013-01-10 17:44:00,
2013-01-10 12:49:00,43.5,24.6,30.48,ESE,109,1.0,6.0,47,0.00,,,0.00,279.0,meteohub,2013-01-10 17:49:00,
2013-01-10 12:54:00,43.5,24.6,30.48,East,100,0.0,6.0,47,0.00,,,0.00,288.0,meteohub,2013-01-10 17:54:00,
2013-01-10 12:59:00,43.5,25.2,30.48,WSW,249,0.0,6.0,48,0.00,,,0.00,285.0,meteohub,2013-01-10 17:59:00,
2013-01-10 13:04:00,43.7,24.8,30.48,ESE,115,2.0,4.0,47,0.00,,,0.00,346.0,meteohub,2013-01-10 18:04:00,
2013-01-10 13:09:00,43.7,25.3,30.48,SSE,158,0.0,6.0,48,0.00,,,0.00,341.0,meteohub,2013-01-10 18:09:00,
2013-01-10 13:14:00,43.5,25.2,30.48,East,83,0.0,6.0,48,0.00,,,0.00,186.0,meteohub,2013-01-10 18:14:00,
2013-01-10 13:19:00,43.7,25.3,30.48,WSW,244,3.0,5.0,48,0.00,,,0.00,171.0,meteohub,2013-01-10 18:19:00,
2013-01-10 13:24:00,43.7,25.3,30.48,WSW,254,2.0,8.0,48,0.00,,,0.00,134.0,meteohub,2013-01-10 18:24:00,
2013-01-10 13:29:00,43.9,25.5,30.48,South,183,1.0,8.0,48,0.00,,,0.00,47.0,meteohub,2013-01-10 18:29:00,
2013-01-10 13:34:00,43.7,26.2,30.48,WNW,296,2.0,10.0,50,0.00,,,0.00,37.0,meteohub,2013-01-10 18:34:00,
2013-01-10 13:40:00,43.5,25.2,30.48,East,89,3.0,10.0,48,0.00,,,0.00,33.0,meteohub,2013-01-10 18:40:00,
2013-01-10 13:45:00,43.5,25.2,30.49,WNW,293,1.0,10.0,48,0.00,,,0.00,33.0,meteohub,2013-01-10 18:45:00,
2013-01-10 13:50:00,43.5,25.7,30.49,SW,233,0.0,7.0,49,0.00,,,0.00,33.0,meteohub,2013-01-10 18:50:00,
2013-01-10 13:55:00,43.9,25.9,30.49,WSW,249,3.0,7.0,49,0.00,,,0.00,33.0,meteohub,2013-01-10 18:55:00,
2013-01-10 14:00:00,44.1,25.2,30.49,WSW,238,0.0,7.0,47,0.00,,,0.00,33.0,meteohub,2013-01-10 19:00:00,
2013-01-10 14:05:00,44.1,25.7,30.49,South,184,3.0,7.0,48,0.00,,,0.00,33.0,meteohub,2013-01-10 19:05:00,
2013-01-10 14:10:00,44.1,26.6,30.49,WSW,253,0.0,7.0,50,0.00,,,0.00,33.0,meteohub,2013-01-10 19:10:00,
2013-01-10 14:15:00,44.1,25.7,30.49,SSW,207,2.0,6.0,48,0.00,,,0.00,32.0,meteohub,2013-01-10 19:15:00,
2013-01-10 14:20:00,44.1,25.7,30.49,SW,217,1.0,6.0,48,0.00,,,0.00,33.0,meteohub,2013-01-10 19:20:00,
2013-01-10 14:25:00,44.1,26.1,30.49,West,278,0.0,7.0,49,0.00,,,0.00,33.0,meteohub,2013-01-10 19:25:00,
2013-01-10 14:31:00,44.1,26.1,30.49,SW,228,1.0,7.0,49,0.00,,,0.00,33.0,meteohub,2013-01-10 19:31:00,
2013-01-10 14:36:00,44.1,25.7,30.49,WSW,238,5.0,9.0,48,0.00,,,0.00,33.0,meteohub,2013-01-10 19:36:00,
2013-01-10 14:41:00,44.2,26.2,30.49,NW,319,1.0,9.0,49,0.00,,,0.00,47.0,meteohub,2013-01-10 19:41:00,
2013-01-10 14:46:00,44.1,25.7,30.49,WSW,254,0.0,13.0,48,0.00,,,0.00,83.0,meteohub,2013-01-10 19:46:00,
2013-01-10 14:51:00,43.9,26.4,30.49,ESE,111,0.0,13.0,50,0.00,,,0.00,160.0,meteohub,2013-01-10 19:51:00,
2013-01-10 14:56:00,43.7,27.1,30.49,NE,52,0.0,13.0,52,0.00,,,0.00,181.0,meteohub,2013-01-10 19:56:00,
2013-01-10 15:02:00,43.3,27.0,30.49,North,355,0.0,6.0,52,0.00,,,0.00,47.0,meteohub,2013-01-10 20:02:00,
2013-01-10 15:07:00,43.3,25.9,30.49,WNW,300,0.0,5.0,50,0.00,,,0.00,32.0,meteohub,2013-01-10 20:07:00,
2013-01-10 15:12:00,43.3,25.5,30.50,WNW,300,0.0,5.0,49,0.00,,,0.00,33.0,meteohub,2013-01-10 20:12:00,
2013-01-10 15:17:00,43.3,25.5,30.50,SSE,157,0.0,4.0,49,0.00,,,0.00,40.0,meteohub,2013-01-10 20:17:00,
2013-01-10 15:22:00,43.3,26.4,30.50,NE,54,2.0,2.0,51,0.00,,,0.00,35.0,meteohub,2013-01-10 20:22:00,
2013-01-10 15:27:00,43.3,26.4,30.50,NW,308,0.0,3.0,51,0.00,,,0.00,60.0,meteohub,2013-01-10 20:27:00,
2013-01-10 15:32:00,43.3,25.9,30.50,WNW,289,0.0,3.0,50,0.00,,,0.00,42.0,meteohub,2013-01-10 20:32:00,
2013-01-10 15:37:00,43.2,25.7,30.51,NW,317,0.0,3.0,50,0.00,,,0.00,42.0,meteohub,2013-01-10 20:37:00,
2013-01-10 15:42:00,43.2,27.7,30.51,NE,49,0.0,3.0,54,0.00,,,0.00,44.0,meteohub,2013-01-10 20:42:00,
2013-01-10 15:47:00,43.2,26.2,30.51,SSE,165,1.0,4.0,51,0.00,,,0.00,44.0,meteohub,2013-01-10 20:47:00,
2013-01-10 15:52:00,43.0,27.0,30.51,WSW,245,0.0,4.0,53,0.00,,,0.00,44.0,meteohub,2013-01-10 20:52:00,
2013-01-10 15:57:00,42.6,26.6,30.51,WSW,245,0.0,2.0,53,0.00,,,0.00,33.0,meteohub,2013-01-10 20:57:00,
2013-01-10 16:02:00,42.3,27.7,30.51,WNW,301,1.0,4.0,56,0.00,,,0.00,32.0,meteohub,2013-01-10 21:02:00,
2013-01-10 16:07:00,41.7,27.7,30.51,East,91,2.0,4.0,57,0.00,,,0.00,28.0,meteohub,2013-01-10 21:07:00,
2013-01-10 16:12:00,41.5,27.5,30.51,WSW,243,0.0,5.0,57,0.00,,,0.00,25.0,meteohub,2013-01-10 21:12:00,
2013-01-10 16:17:00,41.2,27.5,30.51,WSW,243,0.0,5.0,58,0.00,,,0.00,21.0,meteohub,2013-01-10 21:17:00,
2013-01-10 16:22:00,40.6,27.0,30.51,WSW,243,0.0,3.0,58,0.00,,,0.00,19.0,meteohub,2013-01-10 21:22:00,
2013-01-10 16:27:00,40.5,28.0,30.51,WSW,243,0.0,2.0,61,0.00,,,0.00,16.0,meteohub,2013-01-10 21:27:00,
2013-01-10 16:32:00,39.9,27.5,30.52,WSW,243,0.0,2.0,61,0.00,,,0.00,14.0,meteohub,2013-01-10 21:32:00,
2013-01-10 16:37:00,39.6,27.1,30.52,WSW,243,0.0,1.0,61,0.00,,,0.00,9.0,meteohub,2013-01-10 21:37:00,
2013-01-10 16:42:00,39.0,28.2,30.52,WSW,243,0.0,1.0,65,0.00,,,0.00,5.0,meteohub,2013-01-10 21:42:00,
2013-01-10 16:47:00,38.7,27.9,30.52,WSW,243,0.0,1.0,65,0.00,,,0.00,0.0,meteohub,2013-01-10 21:47:00,
2013-01-10 16:52:00,38.3,27.1,30.52,WSW,243,0.0,1.0,64,0.00,,,0.00,0.0,meteohub,2013-01-10 21:52:00,
2013-01-10 16:58:00,37.9,27.7,30.52,WSW,243,0.0,2.0,66,0.00,,,0.00,0.0,meteohub,2013-01-10 21:58:00,
2013-01-10 17:03:00,37.6,27.3,30.52,South,178,1.0,2.0,66,0.00,,,0.00,0.0,meteohub,2013-01-10 22:03:00,
2013-01-10 17:08:00,37.8,27.5,30.52,North,10,0.0,3.0,66,0.00,,,0.00,0.0,meteohub,2013-01-10 22:08:00,
2013-01-10 17:13:00,37.6,27.7,30.53,North,10,0.0,3.0,67,0.00,,,0.00,0.0,meteohub,2013-01-10 22:13:00,
2013-01-10 17:18:00,37.4,27.1,30.53,North,9,0.0,3.0,66,0.00,,,0.00,0.0,meteohub,2013-01-10 22:18:00,
2013-01-10 17:23:00,37.2,27.7,30.53,North,9,0.0,2.0,68,0.00,,,0.00,0.0,meteohub,2013-01-10 22:23:00,
2013-01-10 17:28:00,36.9,27.7,30.53,North,9,0.0,2.0,69,0.00,,,0.00,0.0,meteohub,2013-01-10 22:28:00,
2013-01-10 17:34:00,36.9,26.6,30.53,North,9,0.0,1.0,66,0.00,,,0.00,0.0,meteohub,2013-01-10 22:34:00,
2013-01-10 17:39:00,36.7,26.8,30.53,West,262,0.0,1.0,67,0.00,,,0.00,0.0,meteohub,2013-01-10 22:39:00,
2013-01-10 17:44:00,36.5,25.9,30.53,NE,43,0.0,3.0,65,0.00,,,0.00,0.0,meteohub,2013-01-10 22:44:00,
2013-01-10 17:49:00,36.7,26.4,30.53,NE,48,0.0,3.0,66,0.00,,,0.00,0.0,meteohub,2013-01-10 22:49:00,
2013-01-10 17:55:00,36.7,27.1,30.53,NE,48,0.0,3.0,68,0.00,,,0.00,0.0,meteohub,2013-01-10 22:55:00,
2013-01-10 18:00:00,36.5,27.0,30.53,South,178,0.0,3.0,68,0.00,,,0.00,0.0,meteohub,2013-01-10 23:00:00,
2013-01-10 18:05:00,36.1,26.6,30.53,South,182,0.0,2.0,68,0.00,,,0.00,0.0,meteohub,2013-01-10 23:05:00,
2013-01-10 18:10:00,36.0,26.4,30.53,South,182,1.0,2.0,68,0.00,,,0.00,0.0,meteohub,2013-01-10 23:10:00,
2013-01-10 18:15:00,35.6,26.4,30.53,South,182,0.0,2.0,69,0.00,,,0.00,0.0,meteohub,2013-01-10 23:15:00,
2013-01-10 18:20:00,35.2,26.8,30.53,South,182,0.0,1.0,71,0.00,,,0.00,0.0,meteohub,2013-01-10 23:20:00,
2013-01-10 18:25:00,34.9,27.1,30.54,South,182,0.0,1.0,73,0.00,,,0.00,0.0,meteohub,2013-01-10 23:25:00,
2013-01-10 18:31:00,34.5,26.1,30.54,South,184,0.0,1.0,71,0.00,,,0.00,0.0,meteohub,2013-01-10 23:31:00,
2013-01-10 18:36:00,34.3,26.2,30.54,South,184,0.0,2.0,72,0.00,,,0.00,0.0,meteohub,2013-01-10 23:36:00,
2013-01-10 18:41:00,34.2,26.4,30.54,South,184,0.0,2.0,73,0.00,,,0.00,0.0,meteohub,2013-01-10 23:41:00,
2013-01-10 18:46:00,34.0,27.0,30.54,South,184,0.0,0.0,75,0.00,,,0.00,0.0,meteohub,2013-01-10 23:46:00,
2013-01-10 18:51:00,33.4,26.8,30.54,South,184,0.0,2.0,76,0.00,,,0.00,0.0,meteohub,2013-01-10 23:51:00,
2013-01-10 18:57:00,33.4,26.8,30.54,South,184,0.0,2.0,76,0.00,,,0.00,0.0,meteohub,2013-01-10 23:57:00,
2013-01-10 19:02:00,33.4,26.8,30.55,South,184,0.0,2.0,76,0.00,,,0.00,0.0,meteohub,2013-01-11 00:02:00,
2013-01-10 19:07:00,33.4,26.1,30.55,South,190,0.0,1.0,74,0.00,,,0.00,0.0,meteohub,2013-01-11 00:07:00,
2013-01-10 19:12:00,34.0,27.0,30.55,South,190,0.0,2.0,75,0.00,,,0.00,0.0,meteohub,2013-01-11 00:12:00,
2013-01-10 19:17:00,33.6,26.8,30.56,South,190,0.0,2.0,76,0.00,,,0.00,0.0,meteohub,2013-01-11 00:17:00,
2013-01-10 19:22:00,33.1,26.4,30.56,South,190,0.0,2.0,76,0.00,,,0.00,0.0,meteohub,2013-01-11 00:22:00,
2013-01-10 19:27:00,32.7,26.6,30.56,SSW,193,1.0,2.0,78,0.00,,,0.00,0.0,meteohub,2013-01-11 00:27:00,
2013-01-10 19:32:00,32.5,26.4,30.56,SSW,193,1.0,2.0,78,0.00,,,0.00,0.0,meteohub,2013-01-11 00:32:00,
2013-01-10 19:37:00,32.4,25.9,30.56,South,188,0.0,2.0,77,0.00,,,0.00,0.0,meteohub,2013-01-11 00:37:00,
2013-01-10 19:42:00,32.7,26.2,30.56,ENE,68,1.0,5.0,77,0.00,,,0.00,0.0,meteohub,2013-01-11 00:42:00,
2013-01-10 19:47:00,32.5,25.9,30.56,WSW,241,0.0,5.0,76,0.00,,,0.00,0.0,meteohub,2013-01-11 00:47:00,
2013-01-10 19:52:00,32.5,26.1,30.57,WSW,241,0.0,5.0,77,0.00,,,0.00,0.0,meteohub,2013-01-11 00:52:00,
2013-01-10 19:57:00,32.4,26.2,30.56,WSW,241,0.0,4.0,78,0.00,,,0.00,0.0,meteohub,2013-01-11 00:57:00,
2013-01-10 20:02:00,32.2,26.1,30.57,WSW,241,0.0,2.0,78,0.00,,,0.00,0.0,meteohub,2013-01-11 01:02:00,
2013-01-10 20:07:00,32.2,26.1,30.57,WSW,241,0.0,2.0,78,0.00,,,0.00,0.0,meteohub,2013-01-11 01:07:00,
2013-01-10 20:12:00,32.2,26.1,30.56,NNW,342,0.0,2.0,78,0.00,,,0.00,0.0,meteohub,2013-01-11 01:12:00,
2013-01-10 20:17:00,32.2,26.1,30.56,West,261,0.0,3.0,78,0.00,,,0.00,0.0,meteohub,2013-01-11 01:17:00,
2013-01-10 20:22:00,32.2,26.4,30.56,West,262,0.0,3.0,79,0.00,,,0.00,0.0,meteohub,2013-01-11 01:22:00,
2013-01-10 20:27:00,31.8,26.4,30.56,West,262,0.0,3.0,80,0.00,,,0.00,0.0,meteohub,2013-01-11 01:27:00,
2013-01-10 20:32:00,31.5,25.7,30.56,NW,321,1.0,3.0,79,0.00,,,0.00,0.0,meteohub,2013-01-11 01:32:00,
2013-01-10 20:37:00,31.3,25.9,30.56,West,281,0.0,2.0,80,0.00,,,0.00,0.0,meteohub,2013-01-11 01:37:00,
2013-01-10 20:42:00,31.3,25.5,30.56,West,281,0.0,2.0,79,0.00,,,0.00,0.0,meteohub,2013-01-11 01:42:00,
2013-01-10 20:47:00,31.3,25.9,30.56,West,281,0.0,2.0,80,0.00,,,0.00,0.0,meteohub,2013-01-11 01:47:00,
2013-01-10 20:52:00,31.6,25.9,30.56,NNE,13,0.0,2.0,79,0.00,,,0.00,0.0,meteohub,2013-01-11 01:52:00,
2013-01-10 20:57:00,32.5,26.1,30.56,NE,46,1.0,4.0,77,0.00,,,0.00,0.0,meteohub,2013-01-11 01:57:00,
2013-01-10 21:02:00,33.4,26.8,30.56,NNE,15,0.0,4.0,76,0.00,,,0.00,0.0,meteohub,2013-01-11 02:02:00,
2013-01-10 21:07:00,33.8,26.4,30.56,ESE,110,0.0,4.0,74,0.00,,,0.00,0.0,meteohub,2013-01-11 02:07:00,
2013-01-10 21:13:00,35.1,26.6,30.56,WNW,282,1.0,5.0,71,0.00,,,0.00,0.0,meteohub,2013-01-11 02:13:00,
2013-01-10 21:18:00,36.1,27.3,30.56,WNW,298,1.0,5.0,70,0.00,,,0.00,0.0,meteohub,2013-01-11 02:18:00,
2013-01-10 21:23:00,36.1,27.3,30.56,North,0,1.0,5.0,70,0.00,,,0.00,0.0,meteohub,2013-01-11 02:23:00,
2013-01-10 21:28:00,35.8,27.0,30.56,NNE,31,0.0,5.0,70,0.00,,,0.00,0.0,meteohub,2013-01-11 02:28:00,
2013-01-10 21:33:00,34.9,26.4,30.56,NNW,348,0.0,5.0,71,0.00,,,0.00,0.0,meteohub,2013-01-11 02:33:00,
2013-01-10 21:38:00,34.3,26.2,30.56,NNW,340,0.0,3.0,72,0.00,,,0.00,0.0,meteohub,2013-01-11 02:38:00,
2013-01-10 21:44:00,34.0,25.2,30.56,NE,45,2.0,3.0,70,0.00,,,0.00,0.0,meteohub,2013-01-11 02:44:00,
2013-01-10 21:49:00,33.4,25.0,30.56,NE,39,2.0,3.0,71,0.00,,,0.00,0.0,meteohub,2013-01-11 02:49:00,
2013-01-10 21:54:00,33.4,25.3,30.57,NW,306,2.0,2.0,72,0.00,,,0.00,0.0,meteohub,2013-01-11 02:54:00,
2013-01-10 21:59:00,34.2,26.4,30.57,West,261,0.0,2.0,73,0.00,,,0.00,0.0,meteohub,2013-01-11 02:59:00,
2013-01-10 22:05:00,34.2,26.1,30.58,SW,233,1.0,5.0,72,0.00,,,0.00,0.0,meteohub,2013-01-11 03:05:00,
2013-01-10 22:10:00,34.5,26.4,30.58,West,262,0.0,5.0,72,0.00,,,0.00,0.0,meteohub,2013-01-11 03:10:00,
2013-01-10 22:15:00,35.4,26.6,30.58,SW,229,2.0,5.0,70,0.00,,,0.00,0.0,meteohub,2013-01-11 03:15:00,
2013-01-10 22:20:00,36.1,27.0,30.58,WSW,245,1.0,5.0,69,0.00,,,0.00,0.0,meteohub,2013-01-11 03:20:00,
2013-01-10 22:26:00,36.1,27.3,30.57,WSW,248,0.0,5.0,70,0.00,,,0.00,0.0,meteohub,2013-01-11 03:26:00,
2013-01-10 22:31:00,35.4,26.6,30.57,WSW,248,1.0,5.0,70,0.00,,,0.00,0.0,meteohub,2013-01-11 03:31:00,
2013-01-10 22:36:00,34.9,26.8,30.57,WSW,248,0.0,2.0,72,0.00,,,0.00,0.0,meteohub,2013-01-11 03:36:00,
2013-01-10 22:41:00,34.2,26.1,30.57,WSW,248,0.0,1.0,72,0.00,,,0.00,0.0,meteohub,2013-01-11 03:41:00,
2013-01-10 22:46:00,33.8,26.1,30.57,WSW,248,0.0,2.0,73,0.00,,,0.00,0.0,meteohub,2013-01-11 03:46:00,
2013-01-10 22:51:00,33.4,26.1,30.56,WSW,248,0.0,2.0,74,0.00,,,0.00,0.0,meteohub,2013-01-11 03:51:00,
2013-01-10 22:56:00,33.1,25.7,30.56,WSW,248,0.0,1.0,74,0.00,,,0.00,0.0,meteohub,2013-01-11 03:56:00,
2013-01-10 23:01:00,32.5,26.1,30.56,WSW,248,0.0,1.0,77,0.00,,,0.00,0.0,meteohub,2013-01-11 04:01:00,
2013-01-10 23:06:00,32.0,25.9,30.56,WSW,248,0.0,1.0,78,0.00,,,0.00,0.0,meteohub,2013-01-11 04:06:00,
2013-01-10 23:12:00,31.5,25.7,30.56,WSW,248,0.0,1.0,79,0.00,,,0.00,0.0,meteohub,2013-01-11 04:12:00,
2013-01-10 23:17:00,30.9,25.5,30.56,WSW,248,0.0,1.0,80,0.00,,,0.00,0.0,meteohub,2013-01-11 04:17:00,
2013-01-10 23:22:00,30.6,25.7,30.56,WSW,248,0.0,1.0,82,0.00,,,0.00,0.0,meteohub,2013-01-11 04:22:00,
2013-01-10 23:27:00,30.2,25.3,30.56,WSW,248,0.0,0.0,82,0.00,,,0.00,0.0,meteohub,2013-01-11 04:27:00,
2013-01-10 23:32:00,30.0,25.0,30.57,East,99,0.0,2.0,81,0.00,,,0.00,0.0,meteohub,2013-01-11 04:32:00,
2013-01-10 23:37:00,30.2,24.8,30.57,East,99,0.0,3.0,80,0.00,,,0.00,0.0,meteohub,2013-01-11 04:37:00,
2013-01-10 23:42:00,30.2,25.7,30.57,East,99,0.0,3.0,83,0.00,,,0.00,0.0,meteohub,2013-01-11 04:42:00,
2013-01-10 23:47:00,30.0,25.2,30.57,East,99,1.0,3.0,82,0.00,,,0.00,0.0,meteohub,2013-01-11 04:47:00,
2013-01-10 23:52:00,29.8,25.0,30.57,East,99,0.0,2.0,82,0.00,,,0.00,0.0,meteohub,2013-01-11 04:52:00,
2013-01-10 23:57:00,29.7,25.3,30.57,East,99,0.0,2.0,84,0.00,,,0.00,0.0,meteohub,2013-01-11 04:57:00,